CPT975 PHNL-PHMK
Flight info
| Callsign | CPT975 |
|---|---|
| Flight time | 0h 23m |
| Altitude | 5000 |
| Route | MKK5 MKK |
| Aircraft | C208/L-SDF/C |
Departure
| Time | 2026-04-24 00:11 |
|---|---|
| Airport | Daniel K. Inouye International Airport (PHNL) |
Arrival
| Time | 2026-04-24 00:34 |
|---|---|
| Airport | Molokai Airport (PHMK) |
| Time | Latitude | Longitude | Altitude | Speed | Heading |
|---|---|---|---|---|---|
| 2026-04-23 23:51 | 21.31723 | -157.91830 | 24 ft | 0 kts | 54° |
| 2026-04-24 00:08 | 21.31735 | -157.91824 | 24 ft | 12 kts | 353° |
| 2026-04-24 00:08 | 21.31745 | -157.91923 | 24 ft | 12 kts | 233° |
| 2026-04-24 00:08 | 21.31700 | -157.91987 | 23 ft | 10 kts | 234° |
| 2026-04-24 00:08 | 21.31641 | -157.92072 | 23 ft | 20 kts | 233° |
| 2026-04-24 00:09 | 21.31537 | -157.92218 | 26 ft | 29 kts | 232° |
| 2026-04-24 00:09 | 21.31404 | -157.92409 | 24 ft | 32 kts | 233° |
| 2026-04-24 00:09 | 21.31295 | -157.92562 | 25 ft | 18 kts | 238° |
| 2026-04-24 00:09 | 21.31324 | -157.92641 | 23 ft | 10 kts | 324° |
| 2026-04-24 00:10 | 21.31423 | -157.92670 | 24 ft | 29 kts | 38° |
| 2026-04-24 00:10 | 21.31626 | -157.92382 | 23 ft | 70 kts | 53° |
| 2026-04-24 00:10 | 21.31981 | -157.91882 | 126 ft | 92 kts | 53° |
| 2026-04-24 00:10 | 21.32382 | -157.91317 | 322 ft | 101 kts | 52° |
| 2026-04-24 00:11 | 21.32641 | -157.90620 | 478 ft | 110 kts | 98° |
| 2026-04-24 00:11 | 21.32090 | -157.89987 | 654 ft | 126 kts | 144° |
| 2026-04-24 00:11 | 21.31343 | -157.89456 | 828 ft | 131 kts | 140° |
| 2026-04-24 00:11 | 21.30585 | -157.88893 | 998 ft | 134 kts | 140° |
| 2026-04-24 00:12 | 21.29808 | -157.88319 | 1195 ft | 135 kts | 141° |
| 2026-04-24 00:12 | 21.29054 | -157.87764 | 1440 ft | 132 kts | 140° |
| 2026-04-24 00:12 | 21.28305 | -157.87209 | 1694 ft | 130 kts | 140° |
| 2026-04-24 00:12 | 21.27566 | -157.86668 | 1938 ft | 128 kts | 140° |
| 2026-04-24 00:13 | 21.26838 | -157.86129 | 2184 ft | 127 kts | 140° |
| 2026-04-24 00:13 | 21.26115 | -157.85591 | 2431 ft | 126 kts | 140° |
| 2026-04-24 00:13 | 21.25398 | -157.85057 | 2681 ft | 125 kts | 140° |
| 2026-04-24 00:13 | 21.24693 | -157.84531 | 2930 ft | 123 kts | 140° |
| 2026-04-24 00:14 | 21.24009 | -157.84019 | 3169 ft | 116 kts | 140° |
| 2026-04-24 00:14 | 21.23362 | -157.83537 | 3405 ft | 111 kts | 140° |
| 2026-04-24 00:14 | 21.22741 | -157.83070 | 3638 ft | 107 kts | 140° |
| 2026-04-24 00:14 | 21.22141 | -157.82620 | 3869 ft | 104 kts | 140° |
| 2026-04-24 00:15 | 21.21561 | -157.82180 | 4103 ft | 102 kts | 140° |
| 2026-04-24 00:15 | 21.20992 | -157.81747 | 4338 ft | 99 kts | 140° |
| 2026-04-24 00:15 | 21.20441 | -157.81327 | 4575 ft | 95 kts | 140° |
| 2026-04-24 00:15 | 21.19914 | -157.80921 | 4777 ft | 96 kts | 140° |
| 2026-04-24 00:16 | 21.19333 | -157.80471 | 4839 ft | 109 kts | 140° |
| 2026-04-24 00:16 | 21.18745 | -157.79913 | 4903 ft | 116 kts | 117° |
| 2026-04-24 00:16 | 21.18645 | -157.79056 | 4998 ft | 119 kts | 87° |
| 2026-04-24 00:16 | 21.18622 | -157.78140 | 5031 ft | 128 kts | 92° |
| 2026-04-24 00:17 | 21.18563 | -157.77163 | 5029 ft | 134 kts | 93° |
| 2026-04-24 00:17 | 21.18493 | -157.76150 | 5028 ft | 139 kts | 93° |
| 2026-04-24 00:17 | 21.18418 | -157.75117 | 5027 ft | 141 kts | 94° |
| 2026-04-24 00:17 | 21.18336 | -157.74067 | 5017 ft | 143 kts | 94° |
| 2026-04-24 00:18 | 21.18254 | -157.73004 | 5017 ft | 143 kts | 94° |
| 2026-04-24 00:18 | 21.18171 | -157.71943 | 5018 ft | 143 kts | 94° |
| 2026-04-24 00:18 | 21.18089 | -157.70884 | 5020 ft | 143 kts | 94° |
| 2026-04-24 00:18 | 21.18010 | -157.69831 | 5020 ft | 143 kts | 94° |
| 2026-04-24 00:19 | 21.17926 | -157.68769 | 5018 ft | 143 kts | 94° |
| 2026-04-24 00:19 | 21.17843 | -157.67715 | 5016 ft | 143 kts | 94° |
| 2026-04-24 00:19 | 21.17760 | -157.66646 | 5017 ft | 144 kts | 94° |
| 2026-04-24 00:19 | 21.17675 | -157.65582 | 5018 ft | 143 kts | 94° |
| 2026-04-24 00:20 | 21.17590 | -157.64522 | 5017 ft | 143 kts | 94° |
| 2026-04-24 00:20 | 21.17508 | -157.63455 | 5016 ft | 144 kts | 94° |
| 2026-04-24 00:20 | 21.17424 | -157.62382 | 5017 ft | 144 kts | 94° |
| 2026-04-24 00:20 | 21.17341 | -157.61307 | 5017 ft | 145 kts | 94° |
| 2026-04-24 00:21 | 21.17257 | -157.60229 | 5018 ft | 145 kts | 94° |
| 2026-04-24 00:21 | 21.17173 | -157.59155 | 5015 ft | 144 kts | 94° |
| 2026-04-24 00:21 | 21.17089 | -157.58086 | 5012 ft | 144 kts | 94° |
| 2026-04-24 00:21 | 21.17005 | -157.57009 | 5007 ft | 145 kts | 94° |
| 2026-04-24 00:22 | 21.16920 | -157.55946 | 5007 ft | 145 kts | 94° |
| 2026-04-24 00:22 | 21.16837 | -157.54868 | 5006 ft | 146 kts | 94° |
| 2026-04-24 00:22 | 21.16750 | -157.53777 | 5007 ft | 146 kts | 94° |
| 2026-04-24 00:22 | 21.16664 | -157.52698 | 5007 ft | 146 kts | 94° |
| 2026-04-24 00:23 | 21.16580 | -157.51615 | 5007 ft | 146 kts | 94° |
| 2026-04-24 00:23 | 21.16493 | -157.50529 | 5005 ft | 146 kts | 94° |
| 2026-04-24 00:23 | 21.16407 | -157.49441 | 5001 ft | 146 kts | 94° |
| 2026-04-24 00:23 | 21.16319 | -157.48349 | 4938 ft | 148 kts | 94° |
| 2026-04-24 00:24 | 21.16235 | -157.47266 | 4983 ft | 145 kts | 94° |
| 2026-04-24 00:24 | 21.16151 | -157.46196 | 4981 ft | 145 kts | 94° |
| 2026-04-24 00:24 | 21.16066 | -157.45117 | 4981 ft | 145 kts | 94° |
| 2026-04-24 00:24 | 21.15976 | -157.44026 | 4982 ft | 148 kts | 94° |
| 2026-04-24 00:25 | 21.15890 | -157.42926 | 4983 ft | 148 kts | 94° |
| 2026-04-24 00:25 | 21.15803 | -157.41834 | 4983 ft | 147 kts | 94° |
| 2026-04-24 00:25 | 21.15716 | -157.40755 | 4986 ft | 146 kts | 94° |
| 2026-04-24 00:25 | 21.15633 | -157.39670 | 4986 ft | 147 kts | 94° |
| 2026-04-24 00:26 | 21.15545 | -157.38571 | 4987 ft | 148 kts | 94° |
| 2026-04-24 00:26 | 21.15458 | -157.37478 | 4984 ft | 146 kts | 94° |
| 2026-04-24 00:26 | 21.15373 | -157.36386 | 4994 ft | 148 kts | 94° |
| 2026-04-24 00:26 | 21.15286 | -157.35286 | 4854 ft | 143 kts | 93° |
| 2026-04-24 00:27 | 21.15208 | -157.34275 | 4681 ft | 130 kts | 93° |
| 2026-04-24 00:27 | 21.15136 | -157.33327 | 4457 ft | 126 kts | 93° |
| 2026-04-24 00:27 | 21.15065 | -157.32399 | 4242 ft | 123 kts | 92° |
| 2026-04-24 00:27 | 21.14995 | -157.31486 | 4032 ft | 122 kts | 93° |
| 2026-04-24 00:28 | 21.14922 | -157.30583 | 3827 ft | 121 kts | 93° |
| 2026-04-24 00:28 | 21.14849 | -157.29687 | 3623 ft | 120 kts | 93° |
| 2026-04-24 00:28 | 21.14778 | -157.28797 | 3417 ft | 120 kts | 93° |
| 2026-04-24 00:28 | 21.14706 | -157.27906 | 3216 ft | 120 kts | 93° |
| 2026-04-24 00:29 | 21.14634 | -157.27012 | 3007 ft | 120 kts | 93° |
| 2026-04-24 00:29 | 21.14562 | -157.26122 | 2784 ft | 120 kts | 92° |
| 2026-04-24 00:29 | 21.14490 | -157.25229 | 2562 ft | 120 kts | 92° |
| 2026-04-24 00:29 | 21.14419 | -157.24354 | 2340 ft | 119 kts | 92° |
| 2026-04-24 00:30 | 21.14346 | -157.23431 | 2130 ft | 129 kts | 92° |
| 2026-04-24 00:30 | 21.14264 | -157.22467 | 1925 ft | 134 kts | 91° |
| 2026-04-24 00:30 | 21.14184 | -157.21515 | 1979 ft | 124 kts | 91° |
| 2026-04-24 00:30 | 21.14108 | -157.20595 | 2080 ft | 123 kts | 91° |
| 2026-04-24 00:31 | 21.14032 | -157.19685 | 2189 ft | 123 kts | 91° |
| 2026-04-24 00:31 | 21.13957 | -157.18772 | 2291 ft | 124 kts | 91° |
| 2026-04-24 00:31 | 21.13880 | -157.17853 | 2393 ft | 124 kts | 91° |
| 2026-04-24 00:31 | 21.13833 | -157.16926 | 2442 ft | 126 kts | 87° |
| 2026-04-24 00:32 | 21.13826 | -157.15964 | 2377 ft | 134 kts | 88° |
| 2026-04-24 00:32 | 21.13840 | -157.14931 | 2241 ft | 140 kts | 85° |
| 2026-04-24 00:32 | 21.13874 | -157.13929 | 2088 ft | 127 kts | 84° |
| 2026-04-24 00:32 | 21.13953 | -157.13034 | 1845 ft | 113 kts | 80° |
| 2026-04-24 00:33 | 21.14049 | -157.12202 | 1435 ft | 115 kts | 77° |
| 2026-04-24 00:33 | 21.14254 | -157.11406 | 1037 ft | 107 kts | 63° |
| 2026-04-24 00:33 | 21.14630 | -157.10734 | 686 ft | 100 kts | 59° |
| 2026-04-24 00:33 | 21.14954 | -157.10127 | 503 ft | 89 kts | 59° |
| 2026-04-24 00:34 | 21.15229 | -157.09611 | 460 ft | 64 kts | 63° |
| 2026-04-24 00:34 | 21.15395 | -157.09305 | 463 ft | 21 kts | 56° |
| 2026-04-24 00:34 | 21.15444 | -157.09208 | 464 ft | 14 kts | 59° |
| 2026-04-24 00:34 | 21.15523 | -157.09060 | 465 ft | 37 kts | 59° |
| 2026-04-24 00:35 | 21.15623 | -157.09015 | 462 ft | 12 kts | 273° |
| 2026-04-24 00:35 | 21.15582 | -157.09098 | 462 ft | 16 kts | 241° |
| 2026-04-24 00:35 | 21.15523 | -157.09208 | 462 ft | 16 kts | 249° |
| 2026-04-24 00:35 | 21.15526 | -157.09255 | 462 ft | 3 kts | 333° |
| 2026-04-24 00:36 | 21.15549 | -157.09262 | 462 ft | 3 kts | 50° |
| 2026-04-24 00:36 | 21.15553 | -157.09255 | 462 ft | 1 kts | 57° |
| 2026-04-24 00:36 | 21.15555 | -157.09250 | 462 ft | 0 kts | 59° |